sensor_id;sensor_type;location;lat;lon;timestamp;temperature;humidity
22544;DHT22;11438;52.044;8.716;2023-08-06T00:00:02;19.80;99.90
22544;DHT22;11438;52.044;8.716;2023-08-06T00:02:28;19.80;99.90
22544;DHT22;11438;52.044;8.716;2023-08-06T00:04:54;19.80;99.90
22544;DHT22;11438;52.044;8.716;2023-08-06T00:07:20;19.70;99.90
22544;DHT22;11438;52.044;8.716;2023-08-06T00:09:45;19.70;99.90
22544;DHT22;11438;52.044;8.716;2023-08-06T00:12:11;19.70;99.90
22544;DHT22;11438;52.044;8.716;2023-08-06T00:14:36;19.70;99.90
22544;DHT22;11438;52.044;8.716;2023-08-06T00:17:02;19.70;99.90
22544;DHT22;11438;52.044;8.716;2023-08-06T00:19:27;19.70;99.90
22544;DHT22;11438;52.044;8.716;2023-08-06T00:21:53;19.70;99.90
22544;DHT22;11438;52.044;8.716;2023-08-06T00:24:18;19.70;99.90
22544;DHT22;11438;52.044;8.716;2023-08-06T00:26:44;19.70;99.90
22544;DHT22;11438;52.044;8.716;2023-08-06T00:29:10;19.70;99.90
22544;DHT22;11438;52.044;8.716;2023-08-06T00:31:35;19.70;99.90
22544;DHT22;11438;52.044;8.716;2023-08-06T00:34:01;19.70;99.90
22544;DHT22;11438;52.044;8.716;2023-08-06T00:36:26;19.70;99.90
22544;DHT22;11438;52.044;8.716;2023-08-06T00:38:51;19.60;99.90
22544;DHT22;11438;52.044;8.716;2023-08-06T00:41:17;19.60;99.90
22544;DHT22;11438;52.044;8.716;2023-08-06T00:43:43;19.60;99.90
22544;DHT22;11438;52.044;8.716;2023-08-06T00:46:08;19.60;99.90
22544;DHT22;11438;52.044;8.716;2023-08-06T00:48:34;19.60;99.90
22544;DHT22;11438;52.044;8.716;2023-08-06T00:51:01;19.60;99.90
22544;DHT22;11438;52.044;8.716;2023-08-06T00:53:27;19.60;99.90
22544;DHT22;11438;52.044;8.716;2023-08-06T00:55:52;19.60;99.90
22544;DHT22;11438;52.044;8.716;2023-08-06T00:58:18;19.60;99.90
22544;DHT22;11438;52.044;8.716;2023-08-06T01:00:44;19.60;99.90
22544;DHT22;11438;52.044;8.716;2023-08-06T01:03:10;19.60;99.90
22544;DHT22;11438;52.044;8.716;2023-08-06T01:05:35;19.60;99.90
22544;DHT22;11438;52.044;8.716;2023-08-06T01:11:47;19.60;99.90
22544;DHT22;11438;52.044;8.716;2023-08-06T01:16:47;19.60;99.90
22544;DHT22;11438;52.044;8.716;2023-08-06T01:19:19;19.60;99.90
22544;DHT22;11438;52.044;8.716;2023-08-06T01:21:45;19.50;99.90
22544;DHT22;11438;52.044;8.716;2023-08-06T01:24:11;19.60;99.90
22544;DHT22;11438;52.044;8.716;2023-08-06T01:26:42;19.50;99.90
22544;DHT22;11438;52.044;8.716;2023-08-06T01:29:20;19.50;99.90
22544;DHT22;11438;52.044;8.716;2023-08-06T01:31:49;19.50;99.90
22544;DHT22;11438;52.044;8.716;2023-08-06T01:34:20;19.50;99.90
22544;DHT22;11438;52.044;8.716;2023-08-06T01:36:46;19.50;99.90
22544;DHT22;11438;52.044;8.716;2023-08-06T01:39:11;19.50;99.90
22544;DHT22;11438;52.044;8.716;2023-08-06T01:41:37;19.50;99.90
22544;DHT22;11438;52.044;8.716;2023-08-06T01:44:03;19.50;99.90
22544;DHT22;11438;52.044;8.716;2023-08-06T01:46:28;19.50;99.90
22544;DHT22;11438;52.044;8.716;2023-08-06T01:48:54;19.50;99.90
22544;DHT22;11438;52.044;8.716;2023-08-06T01:51:19;19.50;99.90
22544;DHT22;11438;52.044;8.716;2023-08-06T01:53:45;19.50;99.90
22544;DHT22;11438;52.044;8.716;2023-08-06T01:56:10;19.50;99.90
22544;DHT22;11438;52.044;8.716;2023-08-06T01:58:36;19.50;99.90
22544;DHT22;11438;52.044;8.716;2023-08-06T02:01:02;19.50;99.90
22544;DHT22;11438;52.044;8.716;2023-08-06T02:03:28;19.50;99.90
22544;DHT22;11438;52.044;8.716;2023-08-06T02:05:53;19.50;99.90
22544;DHT22;11438;52.044;8.716;2023-08-06T02:08:19;19.50;99.90
22544;DHT22;11438;52.044;8.716;2023-08-06T02:10:45;19.50;99.90
22544;DHT22;11438;52.044;8.716;2023-08-06T02:13:10;19.50;99.90
22544;DHT22;11438;52.044;8.716;2023-08-06T02:15:42;19.50;99.90
22544;DHT22;11438;52.044;8.716;2023-08-06T02:18:07;19.40;99.90
22544;DHT22;11438;52.044;8.716;2023-08-06T02:20:33;19.50;99.90
22544;DHT22;11438;52.044;8.716;2023-08-06T02:22:58;19.40;99.90
22544;DHT22;11438;52.044;8.716;2023-08-06T02:25:24;19.40;99.90
22544;DHT22;11438;52.044;8.716;2023-08-06T02:27:49;19.50;99.90
22544;DHT22;11438;52.044;8.716;2023-08-06T02:30:15;19.40;99.90
22544;DHT22;11438;52.044;8.716;2023-08-06T02:32:40;19.40;99.90
22544;DHT22;11438;52.044;8.716;2023-08-06T02:35:06;19.40;99.90
22544;DHT22;11438;52.044;8.716;2023-08-06T02:37:33;19.40;99.90
22544;DHT22;11438;52.044;8.716;2023-08-06T02:39:59;19.40;99.90
22544;DHT22;11438;52.044;8.716;2023-08-06T02:42:25;19.40;99.90
22544;DHT22;11438;52.044;8.716;2023-08-06T02:44:52;19.30;99.90
22544;DHT22;11438;52.044;8.716;2023-08-06T02:47:20;19.30;99.90
22544;DHT22;11438;52.044;8.716;2023-08-06T02:49:45;19.30;99.90
22544;DHT22;11438;52.044;8.716;2023-08-06T02:52:11;19.20;99.90
22544;DHT22;11438;52.044;8.716;2023-08-06T02:54:36;19.20;99.90
22544;DHT22;11438;52.044;8.716;2023-08-06T02:57:02;19.20;99.90
22544;DHT22;11438;52.044;8.716;2023-08-06T02:59:28;19.10;99.90
22544;DHT22;11438;52.044;8.716;2023-08-06T03:01:53;19.10;99.90
22544;DHT22;11438;52.044;8.716;2023-08-06T03:04:19;19.00;99.90
22544;DHT22;11438;52.044;8.716;2023-08-06T03:06:44;19.00;99.90
22544;DHT22;11438;52.044;8.716;2023-08-06T03:09:10;19.00;99.90
22544;DHT22;11438;52.044;8.716;2023-08-06T03:11:35;18.90;99.90
22544;DHT22;11438;52.044;8.716;2023-08-06T03:14:01;18.90;99.90
22544;DHT22;11438;52.044;8.716;2023-08-06T03:16:27;18.80;99.90
22544;DHT22;11438;52.044;8.716;2023-08-06T03:18:52;18.80;99.90
22544;DHT22;11438;52.044;8.716;2023-08-06T03:21:18;18.80;99.90
22544;DHT22;11438;52.044;8.716;2023-08-06T03:23:43;18.70;99.90
22544;DHT22;11438;52.044;8.716;2023-08-06T03:26:11;18.70;99.90
22544;DHT22;11438;52.044;8.716;2023-08-06T03:28:37;18.70;99.90
22544;DHT22;11438;52.044;8.716;2023-08-06T03:31:03;18.70;99.90
22544;DHT22;11438;52.044;8.716;2023-08-06T03:33:29;18.70;99.90
22544;DHT22;11438;52.044;8.716;2023-08-06T03:35:55;18.60;99.90
22544;DHT22;11438;52.044;8.716;2023-08-06T03:38:21;18.60;99.90
22544;DHT22;11438;52.044;8.716;2023-08-06T03:40:48;18.50;99.90
22544;DHT22;11438;52.044;8.716;2023-08-06T03:43:13;18.50;99.90
22544;DHT22;11438;52.044;8.716;2023-08-06T03:45:40;18.50;99.90
22544;DHT22;11438;52.044;8.716;2023-08-06T03:48:06;18.50;99.90
22544;DHT22;11438;52.044;8.716;2023-08-06T03:50:31;18.40;99.90
22544;DHT22;11438;52.044;8.716;2023-08-06T03:52:57;18.40;99.90
22544;DHT22;11438;52.044;8.716;2023-08-06T03:55:22;18.40;99.90
22544;DHT22;11438;52.044;8.716;2023-08-06T03:57:48;18.40;99.90
22544;DHT22;11438;52.044;8.716;2023-08-06T04:00:13;18.30;99.90
22544;DHT22;11438;52.044;8.716;2023-08-06T04:02:39;18.30;99.90
22544;DHT22;11438;52.044;8.716;2023-08-06T04:05:04;18.30;99.90
22544;DHT22;11438;52.044;8.716;2023-08-06T04:07:30;18.30;99.90
22544;DHT22;11438;52.044;8.716;2023-08-06T04:10:00;18.30;99.90
22544;DHT22;11438;52.044;8.716;2023-08-06T04:12:26;18.20;99.90
22544;DHT22;11438;52.044;8.716;2023-08-06T04:14:52;18.20;99.90
22544;DHT22;11438;52.044;8.716;2023-08-06T04:17:18;18.20;99.90
22544;DHT22;11438;52.044;8.716;2023-08-06T04:19:50;18.20;99.90
22544;DHT22;11438;52.044;8.716;2023-08-06T04:22:15;18.20;99.90
22544;DHT22;11438;52.044;8.716;2023-08-06T04:24:41;18.20;99.90
22544;DHT22;11438;52.044;8.716;2023-08-06T04:27:08;18.20;99.90
22544;DHT22;11438;52.044;8.716;2023-08-06T04:29:34;18.20;99.90
22544;DHT22;11438;52.044;8.716;2023-08-06T04:31:59;18.20;99.90
22544;DHT22;11438;52.044;8.716;2023-08-06T04:34:25;18.20;99.90
22544;DHT22;11438;52.044;8.716;2023-08-06T04:36:50;18.20;99.90
22544;DHT22;11438;52.044;8.716;2023-08-06T04:39:16;18.20;99.90
22544;DHT22;11438;52.044;8.716;2023-08-06T04:41:41;18.30;99.90
22544;DHT22;11438;52.044;8.716;2023-08-06T04:44:07;18.30;99.90
22544;DHT22;11438;52.044;8.716;2023-08-06T04:46:32;18.30;99.90
22544;DHT22;11438;52.044;8.716;2023-08-06T04:48:58;18.30;99.90
22544;DHT22;11438;52.044;8.716;2023-08-06T04:51:23;18.40;99.90
22544;DHT22;11438;52.044;8.716;2023-08-06T04:53:49;18.40;99.90
22544;DHT22;11438;52.044;8.716;2023-08-06T04:56:14;18.40;99.90
22544;DHT22;11438;52.044;8.716;2023-08-06T04:58:40;18.40;99.90
22544;DHT22;11438;52.044;8.716;2023-08-06T05:01:06;18.50;99.90
22544;DHT22;11438;52.044;8.716;2023-08-06T05:03:31;18.50;99.90
22544;DHT22;11438;52.044;8.716;2023-08-06T05:05:57;18.60;99.90
22544;DHT22;11438;52.044;8.716;2023-08-06T05:08:22;18.60;99.90
22544;DHT22;11438;52.044;8.716;2023-08-06T05:10:48;18.60;99.90
22544;DHT22;11438;52.044;8.716;2023-08-06T05:13:13;18.70;99.90
22544;DHT22;11438;52.044;8.716;2023-08-06T05:15:39;18.60;99.90
22544;DHT22;11438;52.044;8.716;2023-08-06T05:18:08;18.70;99.90
22544;DHT22;11438;52.044;8.716;2023-08-06T05:20:36;18.70;99.90
22544;DHT22;11438;52.044;8.716;2023-08-06T05:23:02;18.80;99.90
22544;DHT22;11438;52.044;8.716;2023-08-06T05:25:28;18.80;99.90
22544;DHT22;11438;52.044;8.716;2023-08-06T05:27:53;18.90;99.90
22544;DHT22;11438;52.044;8.716;2023-08-06T05:30:19;18.90;99.90
22544;DHT22;11438;52.044;8.716;2023-08-06T05:32:44;19.00;99.90
22544;DHT22;11438;52.044;8.716;2023-08-06T05:35:10;19.00;99.90
22544;DHT22;11438;52.044;8.716;2023-08-06T05:37:36;19.00;99.90
22544;DHT22;11438;52.044;8.716;2023-08-06T05:40:01;19.00;99.90
22544;DHT22;11438;52.044;8.716;2023-08-06T05:42:28;19.00;99.90
22544;DHT22;11438;52.044;8.716;2023-08-06T05:44:53;19.10;99.90
22544;DHT22;11438;52.044;8.716;2023-08-06T05:47:19;19.10;99.90
22544;DHT22;11438;52.044;8.716;2023-08-06T05:49:45;19.10;99.90
22544;DHT22;11438;52.044;8.716;2023-08-06T05:52:11;19.20;99.90
22544;DHT22;11438;52.044;8.716;2023-08-06T05:54:36;19.20;99.90
22544;DHT22;11438;52.044;8.716;2023-08-06T05:57:02;19.20;99.90
22544;DHT22;11438;52.044;8.716;2023-08-06T05:59:28;19.20;99.90
22544;DHT22;11438;52.044;8.716;2023-08-06T06:01:53;19.30;99.90
22544;DHT22;11438;52.044;8.716;2023-08-06T06:04:19;19.30;99.90
22544;DHT22;11438;52.044;8.716;2023-08-06T06:06:45;19.30;99.90
22544;DHT22;11438;52.044;8.716;2023-08-06T06:09:10;19.40;99.90
22544;DHT22;11438;52.044;8.716;2023-08-06T06:11:36;19.40;99.90
22544;DHT22;11438;52.044;8.716;2023-08-06T06:14:01;19.40;99.90
22544;DHT22;11438;52.044;8.716;2023-08-06T06:16:27;19.50;99.90
22544;DHT22;11438;52.044;8.716;2023-08-06T06:18:52;19.50;99.90
22544;DHT22;11438;52.044;8.716;2023-08-06T06:21:20;19.60;99.90
22544;DHT22;11438;52.044;8.716;2023-08-06T06:23:45;19.60;99.90
22544;DHT22;11438;52.044;8.716;2023-08-06T06:26:11;19.70;99.90
22544;DHT22;11438;52.044;8.716;2023-08-06T06:28:36;19.70;99.90
22544;DHT22;11438;52.044;8.716;2023-08-06T06:31:02;19.80;99.90
22544;DHT22;11438;52.044;8.716;2023-08-06T06:33:29;19.80;99.90
22544;DHT22;11438;52.044;8.716;2023-08-06T06:35:54;19.90;99.90
22544;DHT22;11438;52.044;8.716;2023-08-06T06:38:20;19.90;99.90
22544;DHT22;11438;52.044;8.716;2023-08-06T06:40:55;19.90;99.90
22544;DHT22;11438;52.044;8.716;2023-08-06T06:43:21;20.00;99.90
22544;DHT22;11438;52.044;8.716;2023-08-06T06:45:46;20.00;99.90
22544;DHT22;11438;52.044;8.716;2023-08-06T06:48:12;20.00;99.90
22544;DHT22;11438;52.044;8.716;2023-08-06T06:50:37;20.00;99.90
22544;DHT22;11438;52.044;8.716;2023-08-06T06:53:04;20.10;99.90
22544;DHT22;11438;52.044;8.716;2023-08-06T06:55:30;20.10;99.90
22544;DHT22;11438;52.044;8.716;2023-08-06T06:57:55;20.10;99.90
22544;DHT22;11438;52.044;8.716;2023-08-06T07:00:21;20.20;99.90
22544;DHT22;11438;52.044;8.716;2023-08-06T07:02:46;20.20;99.90
22544;DHT22;11438;52.044;8.716;2023-08-06T07:05:12;20.20;99.90
22544;DHT22;11438;52.044;8.716;2023-08-06T07:07:37;20.20;99.90
22544;DHT22;11438;52.044;8.716;2023-08-06T07:10:03;20.20;99.90
22544;DHT22;11438;52.044;8.716;2023-08-06T07:12:29;20.30;99.90
22544;DHT22;11438;52.044;8.716;2023-08-06T07:14:54;20.30;99.90
22544;DHT22;11438;52.044;8.716;2023-08-06T07:17:20;20.30;99.90
22544;DHT22;11438;52.044;8.716;2023-08-06T07:19:46;20.30;99.90
22544;DHT22;11438;52.044;8.716;2023-08-06T07:22:11;20.40;99.90
22544;DHT22;11438;52.044;8.716;2023-08-06T07:24:37;20.40;99.90
22544;DHT22;11438;52.044;8.716;2023-08-06T07:27:02;20.40;99.90
22544;DHT22;11438;52.044;8.716;2023-08-06T07:29:28;20.50;99.90
22544;DHT22;11438;52.044;8.716;2023-08-06T07:31:54;20.50;99.90
22544;DHT22;11438;52.044;8.716;2023-08-06T07:34:20;20.60;99.90
22544;DHT22;11438;52.044;8.716;2023-08-06T07:36:46;20.70;99.90
22544;DHT22;11438;52.044;8.716;2023-08-06T07:39:12;20.70;99.90
22544;DHT22;11438;52.044;8.716;2023-08-06T07:41:38;20.80;99.90
22544;DHT22;11438;52.044;8.716;2023-08-06T07:44:04;20.80;99.90
22544;DHT22;11438;52.044;8.716;2023-08-06T07:46:29;20.90;99.90
22544;DHT22;11438;52.044;8.716;2023-08-06T07:48:55;21.00;99.90
22544;DHT22;11438;52.044;8.716;2023-08-06T07:51:21;21.10;99.90
22544;DHT22;11438;52.044;8.716;2023-08-06T07:53:46;21.10;99.90
22544;DHT22;11438;52.044;8.716;2023-08-06T07:56:12;21.30;99.90
22544;DHT22;11438;52.044;8.716;2023-08-06T07:58:38;21.30;99.90
22544;DHT22;11438;52.044;8.716;2023-08-06T08:01:03;21.40;99.90
22544;DHT22;11438;52.044;8.716;2023-08-06T08:03:29;21.40;99.90
22544;DHT22;11438;52.044;8.716;2023-08-06T08:05:55;21.50;99.90
22544;DHT22;11438;52.044;8.716;2023-08-06T08:08:24;21.60;99.90
22544;DHT22;11438;52.044;8.716;2023-08-06T08:10:50;21.70;99.90
22544;DHT22;11438;52.044;8.716;2023-08-06T08:13:15;21.70;99.90
22544;DHT22;11438;52.044;8.716;2023-08-06T08:15:41;21.80;99.90
22544;DHT22;11438;52.044;8.716;2023-08-06T08:18:07;21.80;99.90
22544;DHT22;11438;52.044;8.716;2023-08-06T08:20:33;21.90;99.90
22544;DHT22;11438;52.044;8.716;2023-08-06T08:23:00;21.90;99.90
22544;DHT22;11438;52.044;8.716;2023-08-06T08:25:27;21.90;99.90
22544;DHT22;11438;52.044;8.716;2023-08-06T08:27:54;22.00;99.90
22544;DHT22;11438;52.044;8.716;2023-08-06T08:30:20;22.00;99.90
22544;DHT22;11438;52.044;8.716;2023-08-06T08:32:45;22.10;99.90
22544;DHT22;11438;52.044;8.716;2023-08-06T08:35:11;22.10;99.90
22544;DHT22;11438;52.044;8.716;2023-08-06T08:37:38;22.10;99.90
22544;DHT22;11438;52.044;8.716;2023-08-06T08:40:08;22.20;99.90
22544;DHT22;11438;52.044;8.716;2023-08-06T08:42:35;22.30;99.90
22544;DHT22;11438;52.044;8.716;2023-08-06T08:45:02;22.40;99.90
22544;DHT22;11438;52.044;8.716;2023-08-06T08:47:30;22.50;99.90
22544;DHT22;11438;52.044;8.716;2023-08-06T08:49:57;22.50;99.90
22544;DHT22;11438;52.044;8.716;2023-08-06T08:52:24;22.60;99.90
22544;DHT22;11438;52.044;8.716;2023-08-06T08:54:51;22.70;99.90
22544;DHT22;11438;52.044;8.716;2023-08-06T08:57:19;22.80;99.90
22544;DHT22;11438;52.044;8.716;2023-08-06T08:59:45;22.90;99.90
22544;DHT22;11438;52.044;8.716;2023-08-06T09:02:13;22.90;99.90
22544;DHT22;11438;52.044;8.716;2023-08-06T09:04:41;23.00;99.90
22544;DHT22;11438;52.044;8.716;2023-08-06T09:07:11;23.00;99.90
22544;DHT22;11438;52.044;8.716;2023-08-06T09:09:39;23.10;99.90
22544;DHT22;11438;52.044;8.716;2023-08-06T09:12:11;23.10;99.80
22544;DHT22;11438;52.044;8.716;2023-08-06T09:14:37;23.20;99.60
22544;DHT22;11438;52.044;8.716;2023-08-06T09:17:04;23.20;99.70
22544;DHT22;11438;52.044;8.716;2023-08-06T09:19:30;23.20;99.10
22544;DHT22;11438;52.044;8.716;2023-08-06T09:21:56;23.20;99.30
22544;DHT22;11438;52.044;8.716;2023-08-06T09:24:22;23.20;99.20
22544;DHT22;11438;52.044;8.716;2023-08-06T09:26:48;23.30;99.20
22544;DHT22;11438;52.044;8.716;2023-08-06T09:29:16;23.20;99.10
22544;DHT22;11438;52.044;8.716;2023-08-06T09:31:42;23.30;98.90
22544;DHT22;11438;52.044;8.716;2023-08-06T09:34:15;23.30;98.70
22544;DHT22;11438;52.044;8.716;2023-08-06T09:36:52;23.30;98.60
22544;DHT22;11438;52.044;8.716;2023-08-06T09:39:29;23.30;98.60
22544;DHT22;11438;52.044;8.716;2023-08-06T09:41:59;23.40;98.30
22544;DHT22;11438;52.044;8.716;2023-08-06T09:44:27;23.40;98.30
22544;DHT22;11438;52.044;8.716;2023-08-06T09:46:59;23.50;98.60
22544;DHT22;11438;52.044;8.716;2023-08-06T09:51:59;23.50;99.10
22544;DHT22;11438;52.044;8.716;2023-08-06T09:54:26;23.50;98.20
22544;DHT22;11438;52.044;8.716;2023-08-06T09:56:55;23.50;97.90
22544;DHT22;11438;52.044;8.716;2023-08-06T09:59:24;23.50;98.50
22544;DHT22;11438;52.044;8.716;2023-08-06T10:01:51;23.50;97.80
22544;DHT22;11438;52.044;8.716;2023-08-06T10:04:16;23.50;98.10
22544;DHT22;11438;52.044;8.716;2023-08-06T10:06:46;23.50;97.50
22544;DHT22;11438;52.044;8.716;2023-08-06T10:09:13;23.60;98.10
22544;DHT22;11438;52.044;8.716;2023-08-06T10:11:39;23.60;97.20
22544;DHT22;11438;52.044;8.716;2023-08-06T10:14:14;23.60;97.30
22544;DHT22;11438;52.044;8.716;2023-08-06T10:16:42;23.60;97.50
22544;DHT22;11438;52.044;8.716;2023-08-06T10:19:10;23.60;97.50
22544;DHT22;11438;52.044;8.716;2023-08-06T10:21:39;23.60;96.90
22544;DHT22;11438;52.044;8.716;2023-08-06T10:24:08;23.50;96.90
22544;DHT22;11438;52.044;8.716;2023-08-06T10:26:36;23.60;96.60
22544;DHT22;11438;52.044;8.716;2023-08-06T10:29:35;23.50;96.70
22544;DHT22;11438;52.044;8.716;2023-08-06T10:32:01;23.50;96.80
22544;DHT22;11438;52.044;8.716;2023-08-06T10:34:54;23.50;97.30
22544;DHT22;11438;52.044;8.716;2023-08-06T10:37:20;23.50;96.90
22544;DHT22;11438;52.044;8.716;2023-08-06T10:39:53;23.60;97.60
22544;DHT22;11438;52.044;8.716;2023-08-06T10:42:22;23.60;97.20
22544;DHT22;11438;52.044;8.716;2023-08-06T10:45:11;23.60;96.90
22544;DHT22;11438;52.044;8.716;2023-08-06T10:47:38;23.70;97.10
22544;DHT22;11438;52.044;8.716;2023-08-06T10:50:10;23.70;97.40
22544;DHT22;11438;52.044;8.716;2023-08-06T10:52:35;23.80;97.20
22544;DHT22;11438;52.044;8.716;2023-08-06T10:55:01;23.80;96.50
22544;DHT22;11438;52.044;8.716;2023-08-06T10:57:27;23.80;96.50
22544;DHT22;11438;52.044;8.716;2023-08-06T10:59:52;23.80;96.10
22544;DHT22;11438;52.044;8.716;2023-08-06T11:02:18;23.80;96.10
22544;DHT22;11438;52.044;8.716;2023-08-06T11:04:43;23.90;96.00
22544;DHT22;11438;52.044;8.716;2023-08-06T11:07:10;23.90;96.20
22544;DHT22;11438;52.044;8.716;2023-08-06T11:09:35;24.00;95.60
22544;DHT22;11438;52.044;8.716;2023-08-06T11:12:01;24.00;95.20
22544;DHT22;11438;52.044;8.716;2023-08-06T11:14:26;24.00;95.80
22544;DHT22;11438;52.044;8.716;2023-08-06T11:16:52;24.10;95.10
22544;DHT22;11438;52.044;8.716;2023-08-06T11:19:17;24.10;95.00
22544;DHT22;11438;52.044;8.716;2023-08-06T11:21:43;24.10;95.20
22544;DHT22;11438;52.044;8.716;2023-08-06T11:24:12;24.10;95.10
22544;DHT22;11438;52.044;8.716;2023-08-06T11:26:38;24.20;95.10
22544;DHT22;11438;52.044;8.716;2023-08-06T11:29:05;24.20;95.60
22544;DHT22;11438;52.044;8.716;2023-08-06T11:31:31;24.20;95.00
22544;DHT22;11438;52.044;8.716;2023-08-06T11:33:56;24.30;94.90
22544;DHT22;11438;52.044;8.716;2023-08-06T11:36:32;24.30;95.40
22544;DHT22;11438;52.044;8.716;2023-08-06T11:38:59;24.40;94.60
22544;DHT22;11438;52.044;8.716;2023-08-06T11:41:25;24.50;94.70
22544;DHT22;11438;52.044;8.716;2023-08-06T11:43:50;24.50;94.60
22544;DHT22;11438;52.044;8.716;2023-08-06T11:46:16;24.60;94.40
22544;DHT22;11438;52.044;8.716;2023-08-06T11:48:55;24.60;94.50
22544;DHT22;11438;52.044;8.716;2023-08-06T11:51:27;24.60;94.10
22544;DHT22;11438;52.044;8.716;2023-08-06T11:53:57;24.70;93.80
22544;DHT22;11438;52.044;8.716;2023-08-06T11:56:24;24.70;93.90
22544;DHT22;11438;52.044;8.716;2023-08-06T11:58:50;24.80;94.10
22544;DHT22;11438;52.044;8.716;2023-08-06T12:01:16;24.80;93.70
22544;DHT22;11438;52.044;8.716;2023-08-06T12:03:41;24.80;92.90
22544;DHT22;11438;52.044;8.716;2023-08-06T12:06:07;24.90;93.10
22544;DHT22;11438;52.044;8.716;2023-08-06T12:08:33;25.00;93.00
22544;DHT22;11438;52.044;8.716;2023-08-06T12:10:58;25.00;92.90
22544;DHT22;11438;52.044;8.716;2023-08-06T12:13:24;25.10;93.00
22544;DHT22;11438;52.044;8.716;2023-08-06T12:15:50;25.10;92.70
22544;DHT22;11438;52.044;8.716;2023-08-06T12:18:18;25.10;92.60
22544;DHT22;11438;52.044;8.716;2023-08-06T12:20:43;25.20;93.60
22544;DHT22;11438;52.044;8.716;2023-08-06T12:23:09;25.20;93.20
22544;DHT22;11438;52.044;8.716;2023-08-06T12:25:35;25.30;92.60
22544;DHT22;11438;52.044;8.716;2023-08-06T12:28:00;25.30;93.00
22544;DHT22;11438;52.044;8.716;2023-08-06T12:30:26;25.30;92.10
22544;DHT22;11438;52.044;8.716;2023-08-06T12:32:52;25.30;91.90
22544;DHT22;11438;52.044;8.716;2023-08-06T12:35:17;25.30;91.90
22544;DHT22;11438;52.044;8.716;2023-08-06T12:37:43;25.40;91.90
22544;DHT22;11438;52.044;8.716;2023-08-06T12:40:09;25.40;92.60
22544;DHT22;11438;52.044;8.716;2023-08-06T12:42:35;25.40;92.20
22544;DHT22;11438;52.044;8.716;2023-08-06T12:45:01;25.40;91.30
22544;DHT22;11438;52.044;8.716;2023-08-06T12:47:26;25.50;91.70
22544;DHT22;11438;52.044;8.716;2023-08-06T12:49:52;25.50;92.00
22544;DHT22;11438;52.044;8.716;2023-08-06T12:52:17;25.50;91.70
22544;DHT22;11438;52.044;8.716;2023-08-06T12:54:45;25.60;91.60
22544;DHT22;11438;52.044;8.716;2023-08-06T12:57:11;25.60;91.60
22544;DHT22;11438;52.044;8.716;2023-08-06T12:59:37;25.60;91.00
22544;DHT22;11438;52.044;8.716;2023-08-06T13:02:03;25.70;90.90
22544;DHT22;11438;52.044;8.716;2023-08-06T13:04:29;25.70;91.20
22544;DHT22;11438;52.044;8.716;2023-08-06T13:06:55;25.70;90.60
22544;DHT22;11438;52.044;8.716;2023-08-06T13:09:21;25.80;91.20
22544;DHT22;11438;52.044;8.716;2023-08-06T13:11:47;25.80;91.30
22544;DHT22;11438;52.044;8.716;2023-08-06T13:14:15;25.80;91.20
22544;DHT22;11438;52.044;8.716;2023-08-06T13:16:42;25.70;90.90
22544;DHT22;11438;52.044;8.716;2023-08-06T13:19:08;25.70;91.10
22544;DHT22;11438;52.044;8.716;2023-08-06T13:21:57;25.70;91.20
22544;DHT22;11438;52.044;8.716;2023-08-06T13:24:21;25.70;90.60
22544;DHT22;11438;52.044;8.716;2023-08-06T13:26:46;25.60;91.10
22544;DHT22;11438;52.044;8.716;2023-08-06T13:29:12;25.60;90.90
22544;DHT22;11438;52.044;8.716;2023-08-06T13:31:37;25.50;90.90
22544;DHT22;11438;52.044;8.716;2023-08-06T13:34:03;25.50;91.10
22544;DHT22;11438;52.044;8.716;2023-08-06T13:36:29;25.50;91.10
22544;DHT22;11438;52.044;8.716;2023-08-06T13:38:55;25.40;91.10
22544;DHT22;11438;52.044;8.716;2023-08-06T13:41:21;25.40;91.60
22544;DHT22;11438;52.044;8.716;2023-08-06T13:43:47;25.50;91.60
22544;DHT22;11438;52.044;8.716;2023-08-06T13:46:13;25.50;92.00
22544;DHT22;11438;52.044;8.716;2023-08-06T13:48:43;25.50;91.90
22544;DHT22;11438;52.044;8.716;2023-08-06T13:51:10;25.60;91.10
22544;DHT22;11438;52.044;8.716;2023-08-06T13:53:37;25.60;91.20
22544;DHT22;11438;52.044;8.716;2023-08-06T13:56:02;25.60;90.90
22544;DHT22;11438;52.044;8.716;2023-08-06T13:58:28;25.60;91.10
22544;DHT22;11438;52.044;8.716;2023-08-06T14:00:54;25.60;91.40
22544;DHT22;11438;52.044;8.716;2023-08-06T14:03:20;25.60;91.50
22544;DHT22;11438;52.044;8.716;2023-08-06T14:05:45;25.70;91.60
22544;DHT22;11438;52.044;8.716;2023-08-06T14:08:11;25.70;90.60
22544;DHT22;11438;52.044;8.716;2023-08-06T14:10:37;25.70;90.60
22544;DHT22;11438;52.044;8.716;2023-08-06T14:13:02;25.60;90.20
22544;DHT22;11438;52.044;8.716;2023-08-06T14:15:28;25.60;90.30
22544;DHT22;11438;52.044;8.716;2023-08-06T14:17:53;25.60;90.10
22544;DHT22;11438;52.044;8.716;2023-08-06T14:20:19;25.50;90.20
22544;DHT22;11438;52.044;8.716;2023-08-06T14:22:44;25.50;90.80
22544;DHT22;11438;52.044;8.716;2023-08-06T14:25:10;25.40;91.80
22544;DHT22;11438;52.044;8.716;2023-08-06T14:27:35;25.30;92.30
22544;DHT22;11438;52.044;8.716;2023-08-06T14:30:01;25.20;92.60
22544;DHT22;11438;52.044;8.716;2023-08-06T14:32:28;25.10;92.80
22544;DHT22;11438;52.044;8.716;2023-08-06T14:34:54;25.00;92.90
22544;DHT22;11438;52.044;8.716;2023-08-06T14:37:19;24.80;93.10
22544;DHT22;11438;52.044;8.716;2023-08-06T14:39:45;24.70;93.40
22544;DHT22;11438;52.044;8.716;2023-08-06T14:42:10;24.50;93.60
22544;DHT22;11438;52.044;8.716;2023-08-06T14:44:36;24.30;93.70
22544;DHT22;11438;52.044;8.716;2023-08-06T14:47:02;24.20;94.00
22544;DHT22;11438;52.044;8.716;2023-08-06T14:49:27;24.10;94.20
22544;DHT22;11438;52.044;8.716;2023-08-06T14:51:53;23.90;94.50
22544;DHT22;11438;52.044;8.716;2023-08-06T14:54:18;23.80;94.70
22544;DHT22;11438;52.044;8.716;2023-08-06T14:56:44;23.70;95.00
22544;DHT22;11438;52.044;8.716;2023-08-06T14:59:09;23.60;95.00
22544;DHT22;11438;52.044;8.716;2023-08-06T15:01:35;23.40;95.00
22544;DHT22;11438;52.044;8.716;2023-08-06T15:04:00;23.30;95.30
22544;DHT22;11438;52.044;8.716;2023-08-06T15:06:26;23.20;95.60
22544;DHT22;11438;52.044;8.716;2023-08-06T15:08:51;23.10;96.00
22544;DHT22;11438;52.044;8.716;2023-08-06T15:11:17;23.00;96.20
22544;DHT22;11438;52.044;8.716;2023-08-06T15:13:42;22.90;96.50
22544;DHT22;11438;52.044;8.716;2023-08-06T15:16:08;22.80;96.60
22544;DHT22;11438;52.044;8.716;2023-08-06T15:18:34;22.80;96.70
22544;DHT22;11438;52.044;8.716;2023-08-06T15:20:59;22.70;97.00
22544;DHT22;11438;52.044;8.716;2023-08-06T15:23:25;22.70;97.10
22544;DHT22;11438;52.044;8.716;2023-08-06T15:25:50;22.60;97.20
22544;DHT22;11438;52.044;8.716;2023-08-06T15:28:16;22.60;97.50
22544;DHT22;11438;52.044;8.716;2023-08-06T15:30:51;22.60;97.70
22544;DHT22;11438;52.044;8.716;2023-08-06T15:33:18;22.60;97.90